createdAt,value
2019-02-14T00:00:17.030Z,15.83
2019-02-14T00:02:44.693Z,15.30
2019-02-14T00:05:16.611Z,15.70
2019-02-14T00:07:41.758Z,15.33
2019-02-14T00:10:09.523Z,16.37
2019-02-14T00:12:37.187Z,16.63
2019-02-14T00:15:05.767Z,15.47
2019-02-14T00:17:33.407Z,15.33
2019-02-14T00:20:01.163Z,16.77
2019-02-14T00:22:28.779Z,16.23
2019-02-14T00:24:56.400Z,16.33
2019-02-14T00:27:24.104Z,16.23
2019-02-14T00:29:51.780Z,16.30
2019-02-14T00:32:19.463Z,16.93
2019-02-14T00:34:47.102Z,16.50
2019-02-14T00:37:14.747Z,15.90
2019-02-14T00:39:42.455Z,16.87
2019-02-14T00:42:10.137Z,16.37
2019-02-14T00:44:37.751Z,17.00
2019-02-14T00:47:05.412Z,17.27
2019-02-14T00:49:33.080Z,15.63
2019-02-14T00:52:00.753Z,17.13
2019-02-14T00:54:28.369Z,15.00
2019-02-14T00:56:56.056Z,16.03
2019-02-14T00:59:23.689Z,16.00
2019-02-14T01:01:51.482Z,15.80
2019-02-14T01:04:19.146Z,14.57
2019-02-14T01:06:46.790Z,15.27
2019-02-14T01:09:14.452Z,16.27
2019-02-14T01:11:42.083Z,15.37
2019-02-14T01:14:09.727Z,18.90
2019-02-14T01:16:37.359Z,17.60
2019-02-14T01:19:05.131Z,16.67
2019-02-14T01:21:32.915Z,16.30
2019-02-14T01:24:00.547Z,15.40
2019-02-14T01:26:28.156Z,17.80
2019-02-14T01:28:55.835Z,15.47
2019-02-14T01:31:23.439Z,14.03
2019-02-14T01:33:51.112Z,17.63
2019-02-14T01:36:18.879Z,15.33
2019-02-14T01:38:46.540Z,16.73
2019-02-14T01:41:14.233Z,14.13
2019-02-14T01:43:41.869Z,15.80
2019-02-14T01:46:09.490Z,14.53
2019-02-14T01:48:37.161Z,15.13
2019-02-14T01:51:04.815Z,15.47
2019-02-14T01:53:32.424Z,16.07
2019-02-14T01:56:00.055Z,16.63
2019-02-14T01:58:27.705Z,15.40
2019-02-14T02:00:55.390Z,15.07
2019-02-14T02:03:23.184Z,14.67
2019-02-14T02:05:51.151Z,15.03
2019-02-14T02:08:18.959Z,14.63
2019-02-14T02:10:46.628Z,16.47
2019-02-14T02:13:14.275Z,14.40
2019-02-14T02:15:41.913Z,14.60
2019-02-14T02:18:09.528Z,16.40
2019-02-14T02:20:37.224Z,14.50
2019-02-14T02:23:04.817Z,15.60
2019-02-14T02:25:32.484Z,17.00
2019-02-14T02:28:00.108Z,15.70
2019-02-14T02:30:27.739Z,16.27
2019-02-14T02:32:55.404Z,15.13
2019-02-14T02:35:23.182Z,15.03
2019-02-14T02:37:50.852Z,15.63
2019-02-14T02:40:18.524Z,15.77
2019-02-14T02:42:46.208Z,16.90
2019-02-14T02:45:13.862Z,15.60
2019-02-14T02:47:41.532Z,17.93
2019-02-14T02:50:10.718Z,16.83
2019-02-14T02:52:38.407Z,16.40
2019-02-14T02:55:06.225Z,17.23
2019-02-14T02:57:33.890Z,16.80
2019-02-14T03:00:01.640Z,15.90
2019-02-14T03:02:29.292Z,17.33
2019-02-14T03:04:56.934Z,16.87
2019-02-14T03:07:24.551Z,17.47
2019-02-14T03:09:52.240Z,17.23
2019-02-14T03:12:19.867Z,17.83
2019-02-14T03:14:47.524Z,17.47
2019-02-14T03:17:15.152Z,16.37
2019-02-14T03:19:42.842Z,15.93
2019-02-14T03:22:10.478Z,17.20
2019-02-14T03:24:38.124Z,17.30
2019-02-14T03:27:05.779Z,16.40
2019-02-14T03:29:33.411Z,16.23
2019-02-14T03:32:01.072Z,16.90
2019-02-14T03:34:28.719Z,17.03
2019-02-14T03:36:56.378Z,17.80
2019-02-14T03:39:23.979Z,18.57
2019-02-14T03:41:51.718Z,17.97
2019-02-14T03:44:19.384Z,17.67
2019-02-14T03:46:46.993Z,19.10
2019-02-14T03:49:14.715Z,18.13
2019-02-14T03:51:42.357Z,16.03
2019-02-14T03:54:10.012Z,17.57
2019-02-14T03:56:37.684Z,17.30
2019-02-14T03:59:05.363Z,18.87
2019-02-14T04:01:33.054Z,16.00
2019-02-14T04:04:00.733Z,17.63
2019-02-14T04:06:28.357Z,19.77
2019-02-14T04:08:55.988Z,16.50
2019-02-14T04:11:23.664Z,17.50
2019-02-14T04:13:51.314Z,17.87
2019-02-14T04:16:18.930Z,16.37
2019-02-14T04:18:46.578Z,17.87
2019-02-14T04:21:14.195Z,17.37
2019-02-14T04:23:41.871Z,17.07
2019-02-14T04:26:09.545Z,17.17
2019-02-14T04:28:37.235Z,17.63
2019-02-14T04:31:04.979Z,17.87
2019-02-14T04:33:32.630Z,17.77
2019-02-14T04:36:00.332Z,15.80
2019-02-14T04:38:28.007Z,17.93
2019-02-14T04:40:55.648Z,17.60
2019-02-14T04:43:23.293Z,17.60
2019-02-14T04:45:51.003Z,18.33
2019-02-14T04:48:18.776Z,17.03
2019-02-14T04:50:46.418Z,17.43
2019-02-14T04:53:14.080Z,19.33
2019-02-14T04:55:41.731Z,17.57
2019-02-14T04:58:09.363Z,16.43
2019-02-14T05:00:36.991Z,15.10
2019-02-14T05:03:04.680Z,14.67
2019-02-14T05:05:32.347Z,15.43
2019-02-14T05:08:00.007Z,17.53
2019-02-14T05:10:27.684Z,17.63
2019-02-14T05:12:55.296Z,15.53
2019-02-14T05:15:23.350Z,15.50
2019-02-14T05:17:50.966Z,16.40
2019-02-14T05:20:18.651Z,14.50
2019-02-14T05:22:46.328Z,15.50
2019-02-14T05:25:14.012Z,17.17
2019-02-14T05:27:41.676Z,17.93
2019-02-14T05:30:10.258Z,16.07
2019-02-14T05:32:37.931Z,15.77
2019-02-14T05:35:05.733Z,17.30
2019-02-14T05:37:33.396Z,14.57
2019-02-14T05:40:01.044Z,15.67
2019-02-14T05:42:28.749Z,16.07
2019-02-14T05:44:56.389Z,16.70
2019-02-14T05:47:24.042Z,15.73
2019-02-14T05:49:51.723Z,16.03
2019-02-14T05:52:19.394Z,14.27
2019-02-14T05:54:47.103Z,16.47
2019-02-14T05:57:14.731Z,14.93
2019-02-14T05:59:42.409Z,15.80
2019-02-14T06:02:10.088Z,17.47
2019-02-14T06:04:37.727Z,17.33
2019-02-14T06:07:05.361Z,16.43
2019-02-14T06:09:33.026Z,15.60
2019-02-14T06:12:00.703Z,14.20
2019-02-14T06:14:28.383Z,14.43
2019-02-14T06:16:56.027Z,15.67
2019-02-14T06:19:23.697Z,15.97
2019-02-14T06:21:51.390Z,14.57
2019-02-14T06:24:19.031Z,14.60
2019-02-14T06:26:46.764Z,14.20
2019-02-14T06:29:14.410Z,12.70
2019-02-14T06:31:42.011Z,13.57
2019-02-14T06:34:09.751Z,12.63
2019-02-14T06:36:37.369Z,14.27
2019-02-14T06:39:05.826Z,13.33
2019-02-14T06:41:33.555Z,14.10
2019-02-14T06:44:01.207Z,13.00
2019-02-14T06:46:28.852Z,14.80
2019-02-14T06:48:56.570Z,12.33
2019-02-14T06:51:24.214Z,12.83
2019-02-14T06:53:51.849Z,12.63
2019-02-14T06:56:19.518Z,12.07
2019-02-14T06:58:47.191Z,11.47
2019-02-14T07:01:14.837Z,13.60
2019-02-14T07:03:42.550Z,13.73
2019-02-14T07:06:10.243Z,13.60
2019-02-14T07:08:37.907Z,13.27
2019-02-14T07:11:05.543Z,12.07
2019-02-14T07:13:33.199Z,13.50
2019-02-14T07:16:00.949Z,14.03
2019-02-14T07:18:28.656Z,14.97
2019-02-14T07:20:56.263Z,15.63
2019-02-14T07:23:23.909Z,14.63
2019-02-14T07:25:51.571Z,12.27
2019-02-14T07:28:19.224Z,13.53
2019-02-14T07:30:46.908Z,13.67
2019-02-14T07:33:14.573Z,16.17
2019-02-14T07:35:42.228Z,13.60
2019-02-14T07:38:09.907Z,12.63
2019-02-14T07:40:37.671Z,12.50
2019-02-14T07:43:05.351Z,13.43
2019-02-14T07:45:32.995Z,12.63
2019-02-14T07:48:00.692Z,14.07
2019-02-14T07:50:28.315Z,14.40
2019-02-14T07:52:55.969Z,14.03
2019-02-14T07:55:23.652Z,15.13
2019-02-14T07:57:51.327Z,12.97
2019-02-14T08:00:18.999Z,14.60
2019-02-14T08:02:46.691Z,14.37
2019-02-14T08:05:14.388Z,14.50
2019-02-14T08:07:42.045Z,11.93
2019-02-14T08:10:10.817Z,10.87
2019-02-14T08:12:38.508Z,11.40
2019-02-14T08:15:10.350Z,12.37
2019-02-14T08:17:38.023Z,10.93
2019-02-14T08:20:06.027Z,11.30
2019-02-14T08:22:33.729Z,11.47
2019-02-14T08:25:01.387Z,10.90
2019-02-14T08:27:29.060Z,10.87
2019-02-14T08:29:56.709Z,10.60
2019-02-14T08:32:24.355Z,10.93
2019-02-14T08:34:51.983Z,9.70
2019-02-14T08:37:19.634Z,9.57
2019-02-14T08:39:47.288Z,10.70
2019-02-14T08:42:14.988Z,11.80
2019-02-14T08:44:42.727Z,10.00
2019-02-14T08:47:10.347Z,10.67
2019-02-14T08:49:38.020Z,10.97
2019-02-14T08:52:05.644Z,11.03
2019-02-14T08:54:33.447Z,10.87
2019-02-14T08:57:01.111Z,10.57
2019-02-14T08:59:28.757Z,11.07
2019-02-14T09:01:57.589Z,10.60
2019-02-14T09:04:25.433Z,10.47
2019-02-14T09:06:53.044Z,10.53
2019-02-14T09:09:20.713Z,10.90
2019-02-14T09:11:48.375Z,10.40
2019-02-14T09:14:16.018Z,10.43
2019-02-14T09:16:43.698Z,9.37
2019-02-14T09:19:11.350Z,9.00
2019-02-14T09:21:39.025Z,9.70
2019-02-14T09:24:06.674Z,9.37
2019-02-14T09:26:34.341Z,9.83
2019-02-14T09:29:01.992Z,9.47
2019-02-14T09:31:29.663Z,10.47
2019-02-14T09:33:57.379Z,9.70
2019-02-14T09:36:25.028Z,8.77
2019-02-14T09:38:52.697Z,10.20
2019-02-14T09:41:20.332Z,10.27
2019-02-14T09:43:48.029Z,10.17
2019-02-14T09:46:15.647Z,10.10
2019-02-14T09:48:43.318Z,8.97
2019-02-14T09:51:10.952Z,9.33
2019-02-14T09:53:38.652Z,9.17
2019-02-14T09:56:06.324Z,9.87
2019-02-14T09:58:33.973Z,9.73
2019-02-14T10:01:01.655Z,10.27
2019-02-14T10:03:29.335Z,9.23
2019-02-14T10:05:56.983Z,9.37
2019-02-14T10:08:24.624Z,9.17
2019-02-14T10:10:52.302Z,9.97
2019-02-14T10:13:19.966Z,9.87
2019-02-14T10:15:47.664Z,10.80
2019-02-14T10:18:15.291Z,10.43
2019-02-14T10:20:42.944Z,9.37
2019-02-14T10:23:10.592Z,9.57
2019-02-14T10:25:38.229Z,9.93
2019-02-14T10:28:05.879Z,9.23
2019-02-14T10:30:33.579Z,8.80
2019-02-14T10:33:01.231Z,9.20
2019-02-14T10:35:28.861Z,9.30
2019-02-14T10:37:56.585Z,8.80
2019-02-14T10:40:24.254Z,7.83
2019-02-14T10:42:51.996Z,7.97
2019-02-14T10:45:19.671Z,8.87
2019-02-14T10:47:47.307Z,8.70
2019-02-14T10:50:15.065Z,8.60
2019-02-14T10:52:42.656Z,8.60
2019-02-14T10:55:10.572Z,8.57
2019-02-14T10:57:39.295Z,9.20
2019-02-14T11:00:16.312Z,8.60
2019-02-14T11:02:44.262Z,7.87
2019-02-14T11:05:13.527Z,8.23
2019-02-14T11:07:41.181Z,8.40
2019-02-14T11:10:09.448Z,8.27
2019-02-14T11:12:37.107Z,7.77
2019-02-14T11:15:05.410Z,8.07
2019-02-14T11:17:33.035Z,7.77
2019-02-14T11:20:00.717Z,7.43
2019-02-14T11:22:28.347Z,7.53
2019-02-14T11:24:56.076Z,8.37
2019-02-14T11:27:23.709Z,7.07
2019-02-14T11:29:51.376Z,6.90
2019-02-14T11:32:19.051Z,6.90
2019-02-14T11:34:46.719Z,7.43
2019-02-14T11:37:14.367Z,6.63
2019-02-14T11:39:42.081Z,7.23
2019-02-14T11:42:09.738Z,7.10
2019-02-14T11:44:39.887Z,6.50
2019-02-14T11:47:07.855Z,5.67
2019-02-14T11:49:35.555Z,6.47
2019-02-14T11:52:03.277Z,6.43
2019-02-14T11:54:30.912Z,6.13
2019-02-14T11:56:58.573Z,6.43
2019-02-14T11:59:26.231Z,5.57
2019-02-14T12:01:55.614Z,5.97
2019-02-14T12:04:23.398Z,6.20
2019-02-14T12:06:51.041Z,6.27
2019-02-14T12:09:18.754Z,5.73
2019-02-14T12:11:46.419Z,6.47
2019-02-14T12:14:14.104Z,6.60
2019-02-14T12:16:41.762Z,5.80
2019-02-14T12:19:09.425Z,6.37
2019-02-14T12:21:37.064Z,6.03
2019-02-14T12:24:04.858Z,5.90
2019-02-14T12:26:32.511Z,5.90
2019-02-14T12:29:00.144Z,5.87
2019-02-14T12:31:27.796Z,6.27
2019-02-14T12:33:55.438Z,5.37
2019-02-14T12:36:23.092Z,5.57
2019-02-14T12:38:50.831Z,6.27
2019-02-14T12:41:18.468Z,5.83
2019-02-14T12:43:46.139Z,5.80
2019-02-14T12:46:13.837Z,5.03
2019-02-14T12:48:41.546Z,5.33
2019-02-14T12:51:09.155Z,5.23
2019-02-14T12:53:36.839Z,5.30
2019-02-14T12:56:04.487Z,4.87
2019-02-14T12:58:32.279Z,4.70
2019-02-14T13:00:59.904Z,4.37
2019-02-14T13:03:27.556Z,4.30
2019-02-14T13:05:55.215Z,3.87
2019-02-14T13:08:22.862Z,4.00
2019-02-14T13:10:50.546Z,3.80
2019-02-14T13:13:18.160Z,4.13
2019-02-14T13:15:45.916Z,3.97
2019-02-14T13:18:13.601Z,3.83
2019-02-14T13:20:41.239Z,3.20
2019-02-14T13:23:08.928Z,3.37
2019-02-14T13:25:36.556Z,5.57
2019-02-14T13:28:04.205Z,5.30
2019-02-14T13:30:31.852Z,4.83
2019-02-14T13:32:59.510Z,3.27
2019-02-14T13:35:27.146Z,2.70
2019-02-14T13:37:54.815Z,2.80
2019-02-14T13:40:22.486Z,2.63
2019-02-14T13:42:50.114Z,2.70
2019-02-14T13:45:19.903Z,2.63
2019-02-14T13:47:47.563Z,2.60
2019-02-14T13:50:16.063Z,2.63
2019-02-14T13:52:43.844Z,2.80
2019-02-14T13:55:11.528Z,3.07
2019-02-14T13:57:39.216Z,3.17
2019-02-14T14:00:10.470Z,3.20
2019-02-14T14:02:38.132Z,2.97
2019-02-14T14:05:05.781Z,3.33
2019-02-14T14:07:40.083Z,3.17
2019-02-14T14:10:03.165Z,3.40
2019-02-14T14:12:30.815Z,3.80
2019-02-14T14:14:58.433Z,4.20
2019-02-14T14:17:26.143Z,3.73
2019-02-14T14:19:53.788Z,3.70
2019-02-14T14:22:21.732Z,3.93
2019-02-14T14:24:49.368Z,4.80
2019-02-14T14:27:17.012Z,3.70
2019-02-14T14:29:44.677Z,4.07
2019-02-14T14:32:12.321Z,4.17
2019-02-14T14:34:39.994Z,4.17
2019-02-14T14:37:07.629Z,3.90
2019-02-14T14:39:35.292Z,4.70
2019-02-14T14:42:04.726Z,4.23
2019-02-14T14:44:50.604Z,3.60
2019-02-14T14:47:20.348Z,4.30
2019-02-14T14:49:47.999Z,4.53
2019-02-14T14:52:16.332Z,4.63
2019-02-14T14:54:44.095Z,4.87
2019-02-14T14:57:11.753Z,4.87
2019-02-14T14:59:39.439Z,4.57
2019-02-14T15:02:07.098Z,4.37
2019-02-14T15:04:34.768Z,4.13
2019-02-14T15:07:02.444Z,4.07
2019-02-14T15:09:31.191Z,4.00
2019-02-14T15:11:58.890Z,4.00
2019-02-14T15:14:26.587Z,3.70
2019-02-14T15:16:54.223Z,3.77
2019-02-14T15:19:21.855Z,4.00
2019-02-14T15:21:49.531Z,4.00
2019-02-14T15:24:17.174Z,4.40
2019-02-14T15:26:44.820Z,5.07
2019-02-14T15:29:12.484Z,5.23
2019-02-14T15:31:40.137Z,4.40
2019-02-14T15:34:07.765Z,4.30
2019-02-14T15:36:35.439Z,5.23
2019-02-14T15:39:04.465Z,6.33
2019-02-14T15:41:32.129Z,6.23
2019-02-14T15:43:59.767Z,6.93
2019-02-14T15:46:27.494Z,5.73
2019-02-14T15:48:55.175Z,5.67
2019-02-14T15:51:22.892Z,8.17
2019-02-14T15:53:50.522Z,9.07
2019-02-14T15:56:18.155Z,6.80
2019-02-14T15:58:45.796Z,7.20
2019-02-14T16:01:14.439Z,6.43
2019-02-14T16:03:42.926Z,5.83
2019-02-14T16:06:10.562Z,5.53
2019-02-14T16:08:38.440Z,7.13
2019-02-14T16:11:06.076Z,5.90
2019-02-14T16:13:33.778Z,5.10
2019-02-14T16:16:01.412Z,4.93
2019-02-14T16:18:28.999Z,5.90
2019-02-14T16:20:56.663Z,5.67
2019-02-14T16:23:24.313Z,4.97
2019-02-14T16:25:52.458Z,5.47
2019-02-14T16:28:21.436Z,5.60
2019-02-14T16:30:49.080Z,4.43
2019-02-14T16:33:16.723Z,3.80
2019-02-14T16:35:44.363Z,3.87
2019-02-14T16:38:13.958Z,3.57
2019-02-14T16:40:41.558Z,3.40
2019-02-14T16:43:09.179Z,3.37
2019-02-14T16:45:36.909Z,3.70
2019-02-14T16:48:04.590Z,3.73
2019-02-14T16:50:32.257Z,3.63
2019-02-14T16:53:00.011Z,3.60
2019-02-14T16:55:27.665Z,3.57
2019-02-14T16:57:55.349Z,3.93
2019-02-14T17:00:22.976Z,4.27
2019-02-14T17:02:50.602Z,5.23
2019-02-14T17:05:18.279Z,4.87
2019-02-14T17:07:45.912Z,4.70
2019-02-14T17:10:13.658Z,4.17
2019-02-14T17:12:41.327Z,3.97
2019-02-14T17:15:09.440Z,3.20
2019-02-14T17:17:37.081Z,3.50
2019-02-14T17:20:07.187Z,4.63
2019-02-14T17:22:34.635Z,4.00
2019-02-14T17:25:02.240Z,4.90
2019-02-14T17:27:29.887Z,4.60
2019-02-14T17:29:57.536Z,4.17
2019-02-14T17:32:25.191Z,4.27
2019-02-14T17:34:52.865Z,4.53
2019-02-14T17:37:20.487Z,6.57
2019-02-14T17:39:48.136Z,5.30
2019-02-14T17:42:15.832Z,5.30
2019-02-14T17:44:43.622Z,5.13
2019-02-14T17:47:11.233Z,5.10
2019-02-14T17:49:38.908Z,5.53
2019-02-14T17:52:06.655Z,6.70
2019-02-14T17:54:34.289Z,7.80
2019-02-14T17:57:02.004Z,6.57
2019-02-14T17:59:29.636Z,5.97
2019-02-14T18:01:57.304Z,5.20
2019-02-14T18:04:25.010Z,6.70
2019-02-14T18:06:52.632Z,6.17
2019-02-14T18:09:20.316Z,6.47
2019-02-14T18:11:47.932Z,5.50
2019-02-14T18:14:15.582Z,5.23
2019-02-14T18:16:43.227Z,6.27
2019-02-14T18:19:10.912Z,6.10
2019-02-14T18:21:38.574Z,5.63
2019-02-14T18:24:06.322Z,6.50
2019-02-14T18:26:34.004Z,5.97
2019-02-14T18:29:01.647Z,5.33
2019-02-14T18:31:33.931Z,5.83
2019-02-14T18:34:01.596Z,7.47
2019-02-14T18:36:29.247Z,6.27
2019-02-14T18:38:57.027Z,6.23
2019-02-14T18:41:25.366Z,6.20
2019-02-14T18:43:53.248Z,5.70
2019-02-14T18:46:20.887Z,5.90
2019-02-14T18:48:48.540Z,7.53
2019-02-14T18:51:16.210Z,6.87
2019-02-14T18:53:46.618Z,6.87
2019-02-14T18:56:14.268Z,5.90
2019-02-14T18:58:42.187Z,6.90
2019-02-14T19:01:09.848Z,5.03
2019-02-14T19:03:37.516Z,5.17
2019-02-14T19:06:05.183Z,4.83
2019-02-14T19:08:32.832Z,5.20
2019-02-14T19:11:00.449Z,6.30
2019-02-14T19:13:28.136Z,4.87
2019-02-14T19:15:55.766Z,4.80
2019-02-14T19:18:23.444Z,6.13
2019-02-14T19:20:51.131Z,4.53
2019-02-14T19:23:24.010Z,5.37
2019-02-14T19:25:48.285Z,5.47
2019-02-14T19:28:15.958Z,6.07
2019-02-14T19:30:43.639Z,5.53
2019-02-14T19:33:11.321Z,5.50
2019-02-14T19:35:39.264Z,6.00
2019-02-14T19:38:06.931Z,5.87
2019-02-14T19:40:34.560Z,5.83
2019-02-14T19:43:02.265Z,6.03
2019-02-14T19:45:36.303Z,5.97
2019-02-14T19:47:59.373Z,5.87
2019-02-14T19:50:27.044Z,4.97
2019-02-14T19:52:54.742Z,5.20
2019-02-14T19:55:22.411Z,5.73
2019-02-14T19:57:50.063Z,5.37
2019-02-14T20:00:17.823Z,5.00
2019-02-14T20:02:45.461Z,5.37
2019-02-14T20:05:13.149Z,5.70
2019-02-14T20:07:40.803Z,4.50
2019-02-14T20:10:09.397Z,4.77
2019-02-14T20:12:37.075Z,5.30
2019-02-14T20:15:06.179Z,6.07
2019-02-14T20:17:33.846Z,6.97
2019-02-14T20:20:01.513Z,5.67
2019-02-14T20:22:29.188Z,5.70
2019-02-14T20:24:56.870Z,5.40
2019-02-14T20:27:24.516Z,6.07
2019-02-14T20:29:52.175Z,5.47
2019-02-14T20:32:19.864Z,6.40
2019-02-14T20:34:47.484Z,6.77
2019-02-14T20:37:15.183Z,5.30
2019-02-14T20:39:42.807Z,5.07
2019-02-14T20:42:10.491Z,5.27
2019-02-14T20:44:38.123Z,5.93
2019-02-14T20:47:05.844Z,5.30
2019-02-14T20:49:33.460Z,5.77
2019-02-14T20:52:01.079Z,5.20
2019-02-14T20:54:28.740Z,5.87
2019-02-14T20:56:57.302Z,5.67
2019-02-14T20:59:25.034Z,5.50
2019-02-14T21:01:52.663Z,5.90
2019-02-14T21:04:21.957Z,5.70
2019-02-14T21:06:49.814Z,6.17
2019-02-14T21:09:17.435Z,5.77
2019-02-14T21:11:54.245Z,6.17
2019-02-14T21:14:14.615Z,6.73
2019-02-14T21:16:42.272Z,6.23
2019-02-14T21:19:09.980Z,6.95
2019-02-14T21:21:38.299Z,7.50
2019-02-14T21:24:05.935Z,7.00
2019-02-14T21:26:33.589Z,7.23
2019-02-14T21:29:01.264Z,7.40
2019-02-14T21:31:29.078Z,7.47
2019-02-14T21:33:56.707Z,7.30
2019-02-14T21:36:24.534Z,6.73
2019-02-14T21:38:52.148Z,6.47
2019-02-14T21:41:19.831Z,8.30
2019-02-14T21:43:47.489Z,7.20
2019-02-14T21:46:15.485Z,7.33
2019-02-14T21:48:43.168Z,6.30
2019-02-14T21:51:10.840Z,5.95
2019-02-14T21:53:38.495Z,6.13
2019-02-14T21:56:06.122Z,6.20
2019-02-14T21:58:33.777Z,6.87
2019-02-14T22:01:01.526Z,6.17
2019-02-14T22:03:29.284Z,5.80
2019-02-14T22:05:56.986Z,5.43
2019-02-14T22:08:24.630Z,5.53
2019-02-14T22:10:52.335Z,4.47
2019-02-14T22:13:20.076Z,5.53
2019-02-14T22:15:47.679Z,5.27
2019-02-14T22:18:15.456Z,5.45
2019-02-14T22:20:43.080Z,5.30
2019-02-14T22:23:10.742Z,6.42
2019-02-14T22:25:38.468Z,5.65
2019-02-14T22:28:06.220Z,5.70
2019-02-14T22:30:33.913Z,5.70
2019-02-14T22:33:01.563Z,5.22
2019-02-14T22:35:29.375Z,5.58
2019-02-14T22:37:57.053Z,5.70
2019-02-14T22:40:24.728Z,5.22
2019-02-14T22:42:52.394Z,5.15
2019-02-14T22:45:20.074Z,5.58
2019-02-14T22:47:47.818Z,5.22
2019-02-14T22:50:15.527Z,5.10
2019-02-14T22:52:43.192Z,5.17
2019-02-14T22:55:10.861Z,4.80
2019-02-14T22:57:38.561Z,4.72
2019-02-14T23:00:14.415Z,4.53
2019-02-14T23:02:42.086Z,4.80
2019-02-14T23:05:10.585Z,5.12
2019-02-14T23:07:38.242Z,4.60
2019-02-14T23:10:06.009Z,5.12
2019-02-14T23:12:33.661Z,4.72
2019-02-14T23:15:01.330Z,5.62
2019-02-14T23:17:28.956Z,5.53
2019-02-14T23:19:56.654Z,6.05
2019-02-14T23:22:24.277Z,5.85
2019-02-14T23:24:52.060Z,5.90
2019-02-14T23:27:19.711Z,5.80
2019-02-14T23:29:47.382Z,5.65
2019-02-14T23:32:15.072Z,5.92
2019-02-14T23:34:42.712Z,5.53
2019-02-14T23:37:10.368Z,5.28
2019-02-14T23:39:38.059Z,5.83
2019-02-14T23:42:05.760Z,5.40
2019-02-14T23:44:33.380Z,5.87
2019-02-14T23:47:01.148Z,5.12
2019-02-14T23:49:28.768Z,4.87
2019-02-14T23:51:56.428Z,5.20
2019-02-14T23:54:24.034Z,5.22
2019-02-14T23:56:51.693Z,4.50
2019-02-14T23:59:19.320Z,5.00
